sensor_id;sensor_type;location;lat;lon;timestamp;pressure;altitude;pressure_sealevel;temperature;humidity
41250;BME280;26984;59.928;30.306;2023-06-04T00:02:25;101122.63;;;9.51;99.25
41250;BME280;26984;59.928;30.306;2023-06-04T00:04:52;101120.16;;;9.50;98.67
41250;BME280;26984;59.928;30.306;2023-06-04T00:07:20;101118.63;;;9.41;99.09
41250;BME280;26984;59.928;30.306;2023-06-04T00:09:48;101117.03;;;9.46;99.11
41250;BME280;26984;59.928;30.306;2023-06-04T00:12:15;101112.44;;;9.40;100.00
41250;BME280;26984;59.928;30.306;2023-06-04T00:14:43;101109.09;;;9.38;99.83
41250;BME280;26984;59.928;30.306;2023-06-04T00:17:10;101113.44;;;9.39;99.89
41250;BME280;26984;59.928;30.306;2023-06-04T00:19:39;101109.91;;;9.39;99.23
41250;BME280;26984;59.928;30.306;2023-06-04T00:22:07;101117.94;;;9.32;99.35
41250;BME280;26984;59.928;30.306;2023-06-04T00:24:36;101122.75;;;9.37;99.09
41250;BME280;26984;59.928;30.306;2023-06-04T00:27:04;101121.44;;;9.26;99.39
41250;BME280;26984;59.928;30.306;2023-06-04T00:29:32;101117.25;;;9.23;99.04
41250;BME280;26984;59.928;30.306;2023-06-04T00:31:59;101125.09;;;9.18;99.32
41250;BME280;26984;59.928;30.306;2023-06-04T00:34:26;101120.72;;;9.17;99.57
41250;BME280;26984;59.928;30.306;2023-06-04T00:36:56;101120.66;;;9.10;99.36
41250;BME280;26984;59.928;30.306;2023-06-04T00:39:23;101117.53;;;9.07;99.95
41250;BME280;26984;59.928;30.306;2023-06-04T00:41:51;101109.75;;;9.12;98.83
41250;BME280;26984;59.928;30.306;2023-06-04T00:44:18;101113.25;;;9.13;99.04
41250;BME280;26984;59.928;30.306;2023-06-04T00:46:47;101104.75;;;9.09;98.60
41250;BME280;26984;59.928;30.306;2023-06-04T00:49:15;101111.78;;;9.10;98.98
41250;BME280;26984;59.928;30.306;2023-06-04T00:51:42;101101.25;;;9.08;98.42
41250;BME280;26984;59.928;30.306;2023-06-04T00:54:11;101102.88;;;9.09;98.71
41250;BME280;26984;59.928;30.306;2023-06-04T00:56:39;101101.03;;;9.10;99.03
41250;BME280;26984;59.928;30.306;2023-06-04T00:59:08;101105.41;;;9.11;98.53
41250;BME280;26984;59.928;30.306;2023-06-04T01:01:37;101103.34;;;9.13;98.69
41250;BME280;26984;59.928;30.306;2023-06-04T01:04:09;101104.38;;;9.12;98.60
41250;BME280;26984;59.928;30.306;2023-06-04T01:06:39;101104.41;;;9.19;97.86
41250;BME280;26984;59.928;30.306;2023-06-04T01:09:11;101109.78;;;9.19;98.03
41250;BME280;26984;59.928;30.306;2023-06-04T01:11:40;101087.59;;;9.10;98.91
41250;BME280;26984;59.928;30.306;2023-06-04T01:14:08;101103.38;;;9.20;98.86
41250;BME280;26984;59.928;30.306;2023-06-04T01:16:38;101098.00;;;9.20;99.24
41250;BME280;26984;59.928;30.306;2023-06-04T01:19:10;101091.97;;;9.18;99.70
41250;BME280;26984;59.928;30.306;2023-06-04T01:21:47;101098.16;;;9.11;99.74
41250;BME280;26984;59.928;30.306;2023-06-04T01:24:18;101088.41;;;9.10;100.00
41250;BME280;26984;59.928;30.306;2023-06-04T01:26:48;101082.47;;;9.15;100.00
41250;BME280;26984;59.928;30.306;2023-06-04T01:29:17;101087.47;;;9.18;100.00
41250;BME280;26984;59.928;30.306;2023-06-04T01:31:44;101081.81;;;9.13;100.00
41250;BME280;26984;59.928;30.306;2023-06-04T01:34:12;101086.00;;;9.16;100.00
41250;BME280;26984;59.928;30.306;2023-06-04T01:36:40;101082.47;;;9.15;100.00
41250;BME280;26984;59.928;30.306;2023-06-04T01:39:07;101089.13;;;9.19;100.00
41250;BME280;26984;59.928;30.306;2023-06-04T01:41:37;101094.50;;;9.19;100.00
41250;BME280;26984;59.928;30.306;2023-06-04T01:44:04;101091.97;;;9.18;100.00
41250;BME280;26984;59.928;30.306;2023-06-04T01:46:32;101097.56;;;9.16;100.00
41250;BME280;26984;59.928;30.306;2023-06-04T01:48:59;101102.34;;;9.21;100.00
41250;BME280;26984;59.928;30.306;2023-06-04T01:51:28;101089.06;;;9.13;100.00
41250;BME280;26984;59.928;30.306;2023-06-04T01:53:55;101101.72;;;9.19;100.00
41250;BME280;26984;59.928;30.306;2023-06-04T01:56:22;101109.00;;;9.25;100.00
41250;BME280;26984;59.928;30.306;2023-06-04T01:58:53;101103.97;;;9.15;100.00
41250;BME280;26984;59.928;30.306;2023-06-04T02:01:21;101104.81;;;9.16;100.00
41250;BME280;26984;59.928;30.306;2023-06-04T02:03:48;101108.84;;;9.05;100.00
41250;BME280;26984;59.928;30.306;2023-06-04T02:06:16;101105.81;;;8.86;100.00
41250;BME280;26984;59.928;30.306;2023-06-04T02:08:44;101114.34;;;8.69;100.00
41250;BME280;26984;59.928;30.306;2023-06-04T02:11:11;101110.69;;;8.55;100.00
41250;BME280;26984;59.928;30.306;2023-06-04T02:13:39;101114.16;;;8.34;100.00
41250;BME280;26984;59.928;30.306;2023-06-04T02:16:08;101118.59;;;8.27;100.00
41250;BME280;26984;59.928;30.306;2023-06-04T02:18:37;101109.28;;;8.23;100.00
41250;BME280;26984;59.928;30.306;2023-06-04T02:21:04;101108.25;;;8.24;100.00
41250;BME280;26984;59.928;30.306;2023-06-04T02:23:31;101117.13;;;8.24;100.00
41250;BME280;26984;59.928;30.306;2023-06-04T02:25:59;101114.72;;;8.29;100.00
41250;BME280;26984;59.928;30.306;2023-06-04T02:28:26;101110.34;;;8.28;100.00
41250;BME280;26984;59.928;30.306;2023-06-04T02:30:54;101119.44;;;8.27;100.00
41250;BME280;26984;59.928;30.306;2023-06-04T02:33:23;101111.31;;;8.21;100.00
41250;BME280;26984;59.928;30.306;2023-06-04T02:35:51;101114.72;;;8.14;100.00
41250;BME280;26984;59.928;30.306;2023-06-04T02:38:18;101114.72;;;8.14;100.00
41250;BME280;26984;59.928;30.306;2023-06-04T02:40:46;101109.00;;;8.18;100.00
41250;BME280;26984;59.928;30.306;2023-06-04T02:43:13;101108.63;;;8.21;100.00
41250;BME280;26984;59.928;30.306;2023-06-04T02:45:41;101112.59;;;8.25;100.00
41250;BME280;26984;59.928;30.306;2023-06-04T02:48:08;101109.53;;;8.28;100.00
41250;BME280;26984;59.928;30.306;2023-06-04T02:50:37;101095.47;;;8.26;100.00
41250;BME280;26984;59.928;30.306;2023-06-04T02:53:05;101105.81;;;8.29;100.00
41250;BME280;26984;59.928;30.306;2023-06-04T02:55:32;101100.66;;;8.27;100.00
41250;BME280;26984;59.928;30.306;2023-06-04T02:58:00;101100.44;;;8.29;100.00
41250;BME280;26984;59.928;30.306;2023-06-04T03:00:29;101099.75;;;8.20;100.00
41250;BME280;26984;59.928;30.306;2023-06-04T03:02:56;101095.66;;;8.24;100.00
41250;BME280;26984;59.928;30.306;2023-06-04T03:05:27;101096.31;;;8.26;100.00
41250;BME280;26984;59.928;30.306;2023-06-04T03:07:58;101093.63;;;8.26;100.00
41250;BME280;26984;59.928;30.306;2023-06-04T03:10:25;101088.34;;;8.33;100.00
41250;BME280;26984;59.928;30.306;2023-06-04T03:12:53;101093.03;;;8.31;100.00
41250;BME280;26984;59.928;30.306;2023-06-04T03:15:20;101086.19;;;8.28;100.00
41250;BME280;26984;59.928;30.306;2023-06-04T03:17:48;101090.16;;;8.47;100.00
41250;BME280;26984;59.928;30.306;2023-06-04T03:20:17;101087.94;;;8.51;100.00
41250;BME280;26984;59.928;30.306;2023-06-04T03:22:44;101076.91;;;8.46;100.00
41250;BME280;26984;59.928;30.306;2023-06-04T03:25:14;101085.25;;;8.51;100.00
41250;BME280;26984;59.928;30.306;2023-06-04T03:27:42;101084.59;;;8.49;100.00
41250;BME280;26984;59.928;30.306;2023-06-04T03:30:10;101090.41;;;8.52;100.00
41250;BME280;26984;59.928;30.306;2023-06-04T03:32:47;101085.47;;;8.56;100.00
41250;BME280;26984;59.928;30.306;2023-06-04T03:35:15;101078.31;;;8.63;100.00
41250;BME280;26984;59.928;30.306;2023-06-04T03:37:43;101083.56;;;8.71;100.00
41250;BME280;26984;59.928;30.306;2023-06-04T03:40:12;101085.75;;;8.82;100.00
41250;BME280;26984;59.928;30.306;2023-06-04T03:42:43;101081.03;;;8.91;100.00
41250;BME280;26984;59.928;30.306;2023-06-04T03:45:12;101075.47;;;8.93;100.00
41250;BME280;26984;59.928;30.306;2023-06-04T03:47:39;101076.59;;;9.05;100.00
41250;BME280;26984;59.928;30.306;2023-06-04T03:50:08;101079.25;;;9.26;100.00
41250;BME280;26984;59.928;30.306;2023-06-04T03:52:37;101075.06;;;9.24;100.00
41250;BME280;26984;59.928;30.306;2023-06-04T03:55:06;101069.09;;;9.28;100.00
41250;BME280;26984;59.928;30.306;2023-06-04T03:57:35;101073.47;;;9.29;100.00
41250;BME280;26984;59.928;30.306;2023-06-04T04:00:07;101069.34;;;9.33;100.00
41250;BME280;26984;59.928;30.306;2023-06-04T04:02:41;101067.19;;;9.50;100.00
41250;BME280;26984;59.928;30.306;2023-06-04T04:05:17;101061.28;;;9.68;100.00
41250;BME280;26984;59.928;30.306;2023-06-04T04:07:46;101069.16;;;9.76;100.00
41250;BME280;26984;59.928;30.306;2023-06-04T04:10:16;101069.81;;;9.85;100.00
41250;BME280;26984;59.928;30.306;2023-06-04T04:12:43;101077.28;;;9.83;100.00
41250;BME280;26984;59.928;30.306;2023-06-04T04:15:13;101067.34;;;9.83;100.00
41250;BME280;26984;59.928;30.306;2023-06-04T04:17:42;101070.00;;;9.77;100.00
41250;BME280;26984;59.928;30.306;2023-06-04T04:20:10;101062.06;;;9.62;100.00
41250;BME280;26984;59.928;30.306;2023-06-04T04:22:44;101071.66;;;9.71;100.00
41250;BME280;26984;59.928;30.306;2023-06-04T04:25:13;101065.63;;;9.69;100.00
41250;BME280;26984;59.928;30.306;2023-06-04T04:27:40;101060.28;;;9.41;100.00
41250;BME280;26984;59.928;30.306;2023-06-04T04:30:11;101069.97;;;9.29;100.00
41250;BME280;26984;59.928;30.306;2023-06-04T04:32:43;101064.31;;;9.24;100.00
41250;BME280;26984;59.928;30.306;2023-06-04T04:35:17;101067.44;;;9.27;100.00
41250;BME280;26984;59.928;30.306;2023-06-04T04:37:46;101064.16;;;9.25;100.00
41250;BME280;26984;59.928;30.306;2023-06-04T04:40:17;101066.78;;;9.19;100.00
41250;BME280;26984;59.928;30.306;2023-06-04T04:42:48;101065.69;;;9.13;100.00
41250;BME280;26984;59.928;30.306;2023-06-04T04:45:17;101061.59;;;9.17;100.00
41250;BME280;26984;59.928;30.306;2023-06-04T04:47:47;101068.22;;;9.21;100.00
41250;BME280;26984;59.928;30.306;2023-06-04T04:50:17;101064.16;;;9.25;100.00
41250;BME280;26984;59.928;30.306;2023-06-04T04:52:44;101055.09;;;9.33;100.00
41250;BME280;26984;59.928;30.306;2023-06-04T04:55:12;101052.75;;;9.58;100.00
41250;BME280;26984;59.928;30.306;2023-06-04T04:57:40;101051.53;;;9.67;100.00
41250;BME280;26984;59.928;30.306;2023-06-04T05:00:09;101047.44;;;9.71;100.00
41250;BME280;26984;59.928;30.306;2023-06-04T05:02:40;101049.44;;;9.63;100.00
41250;BME280;26984;59.928;30.306;2023-06-04T05:05:11;101057.50;;;9.63;100.00
41250;BME280;26984;59.928;30.306;2023-06-04T05:07:40;101055.63;;;9.56;100.00
41250;BME280;26984;59.928;30.306;2023-06-04T05:10:09;101053.31;;;9.47;100.00
41250;BME280;26984;59.928;30.306;2023-06-04T05:12:38;101050.38;;;9.42;100.00
41250;BME280;26984;59.928;30.306;2023-06-04T05:15:08;101045.41;;;9.45;100.00
41250;BME280;26984;59.928;30.306;2023-06-04T05:17:39;101048.41;;;9.64;100.00
41250;BME280;26984;59.928;30.306;2023-06-04T05:20:11;101043.44;;;9.67;100.00
41250;BME280;26984;59.928;30.306;2023-06-04T05:22:41;101042.63;;;9.67;100.00
41250;BME280;26984;59.928;30.306;2023-06-04T05:25:09;101045.31;;;9.67;100.00
41250;BME280;26984;59.928;30.306;2023-06-04T05:27:37;101048.63;;;9.62;100.00
41250;BME280;26984;59.928;30.306;2023-06-04T05:30:07;101044.72;;;9.65;100.00
41250;BME280;26984;59.928;30.306;2023-06-04T05:32:34;101032.09;;;9.65;100.00
41250;BME280;26984;59.928;30.306;2023-06-04T05:35:08;101048.84;;;9.67;100.00
41250;BME280;26984;59.928;30.306;2023-06-04T05:37:39;101037.22;;;9.53;100.00
41250;BME280;26984;59.928;30.306;2023-06-04T05:40:09;101035.50;;;9.46;100.00
41250;BME280;26984;59.928;30.306;2023-06-04T05:42:37;101040.59;;;9.34;100.00
41250;BME280;26984;59.928;30.306;2023-06-04T05:45:05;101043.72;;;9.38;100.00
41250;BME280;26984;59.928;30.306;2023-06-04T05:47:34;101037.97;;;9.41;100.00
41250;BME280;26984;59.928;30.306;2023-06-04T05:50:03;101036.59;;;9.58;100.00
41250;BME280;26984;59.928;30.306;2023-06-04T05:52:32;101039.78;;;9.75;100.00
41250;BME280;26984;59.928;30.306;2023-06-04T05:55:02;101047.03;;;9.81;100.00
41250;BME280;26984;59.928;30.306;2023-06-04T05:57:29;101034.84;;;9.92;100.00
41250;BME280;26984;59.928;30.306;2023-06-04T05:59:57;101040.28;;;10.05;100.00
41250;BME280;26984;59.928;30.306;2023-06-04T06:02:24;101041.72;;;9.94;100.00
41250;BME280;26984;59.928;30.306;2023-06-04T06:04:52;101039.22;;;9.93;100.00
41250;BME280;26984;59.928;30.306;2023-06-04T06:07:19;101048.53;;;9.90;100.00
41250;BME280;26984;59.928;30.306;2023-06-04T06:09:47;101042.34;;;9.96;100.00
41250;BME280;26984;59.928;30.306;2023-06-04T06:12:16;101042.13;;;9.98;100.00
41250;BME280;26984;59.928;30.306;2023-06-04T06:14:44;101042.16;;;10.04;100.00
41250;BME280;26984;59.928;30.306;2023-06-04T06:17:12;101046.53;;;10.12;100.00
41250;BME280;26984;59.928;30.306;2023-06-04T06:19:40;101041.34;;;10.04;100.00
41250;BME280;26984;59.928;30.306;2023-06-04T06:22:07;101039.66;;;10.10;100.00
41250;BME280;26984;59.928;30.306;2023-06-04T06:24:35;101049.22;;;10.12;100.00
41250;BME280;26984;59.928;30.306;2023-06-04T06:27:03;101044.47;;;10.21;100.00
41250;BME280;26984;59.928;30.306;2023-06-04T06:29:32;101045.34;;;10.28;100.00
41250;BME280;26984;59.928;30.306;2023-06-04T06:32:00;101048.25;;;10.33;100.00
41250;BME280;26984;59.928;30.306;2023-06-04T06:34:28;101059.03;;;10.33;100.00
41250;BME280;26984;59.928;30.306;2023-06-04T06:36:55;101034.47;;;10.01;100.00
41250;BME280;26984;59.928;30.306;2023-06-04T06:39:23;101044.97;;;9.83;100.00
41250;BME280;26984;59.928;30.306;2023-06-04T06:41:51;101049.50;;;9.76;100.00
41250;BME280;26984;59.928;30.306;2023-06-04T06:44:23;101052.38;;;9.68;100.00
41250;BME280;26984;59.928;30.306;2023-06-04T06:46:51;101050.50;;;9.68;100.00
41250;BME280;26984;59.928;30.306;2023-06-04T06:49:19;101059.19;;;9.70;100.00
41250;BME280;26984;59.928;30.306;2023-06-04T06:51:46;101062.72;;;9.64;100.00
41250;BME280;26984;59.928;30.306;2023-06-04T06:54:14;101061.00;;;9.56;100.00
41250;BME280;26984;59.928;30.306;2023-06-04T06:56:41;101056.63;;;9.49;100.00
41250;BME280;26984;59.928;30.306;2023-06-04T06:59:09;101060.34;;;9.48;100.00
41250;BME280;26984;59.928;30.306;2023-06-04T07:01:36;101059.13;;;9.50;100.00
41250;BME280;26984;59.928;30.306;2023-06-04T07:04:05;101057.91;;;9.59;100.00
41250;BME280;26984;59.928;30.306;2023-06-04T07:06:33;101059.81;;;9.66;100.00
41250;BME280;26984;59.928;30.306;2023-06-04T07:09:02;101066.41;;;9.63;100.00
41250;BME280;26984;59.928;30.306;2023-06-04T07:11:30;101067.03;;;9.58;100.00
41250;BME280;26984;59.928;30.306;2023-06-04T07:13:57;101070.88;;;9.49;100.00
41250;BME280;26984;59.928;30.306;2023-06-04T07:16:24;101073.97;;;9.40;100.00
41250;BME280;26984;59.928;30.306;2023-06-04T07:18:52;101087.78;;;9.37;100.00
41250;BME280;26984;59.928;30.306;2023-06-04T07:21:21;101087.19;;;9.13;100.00
41250;BME280;26984;59.928;30.306;2023-06-04T07:23:49;101059.22;;;9.01;100.00
41250;BME280;26984;59.928;30.306;2023-06-04T07:26:17;101072.66;;;9.01;100.00
41250;BME280;26984;59.928;30.306;2023-06-04T07:28:44;101067.81;;;8.90;100.00
41250;BME280;26984;59.928;30.306;2023-06-04T07:31:14;101070.28;;;8.91;100.00
41250;BME280;26984;59.928;30.306;2023-06-04T07:33:41;101071.47;;;9.10;100.00
41250;BME280;26984;59.928;30.306;2023-06-04T07:36:10;101074.47;;;9.63;100.00
41250;BME280;26984;59.928;30.306;2023-06-04T07:38:39;101069.47;;;10.01;100.00
41250;BME280;26984;59.928;30.306;2023-06-04T07:41:07;101074.56;;;10.31;100.00
41250;BME280;26984;59.928;30.306;2023-06-04T07:43:34;101069.63;;;10.54;100.00
41250;BME280;26984;59.928;30.306;2023-06-04T07:46:02;101076.25;;;10.59;100.00
41250;BME280;26984;59.928;30.306;2023-06-04T07:48:29;101081.03;;;10.70;100.00
41250;BME280;26984;59.928;30.306;2023-06-04T07:50:57;101079.81;;;10.79;100.00
41250;BME280;26984;59.928;30.306;2023-06-04T07:53:25;101087.88;;;10.99;100.00
41250;BME280;26984;59.928;30.306;2023-06-04T07:55:54;101096.59;;;11.14;100.00
41250;BME280;26984;59.928;30.306;2023-06-04T07:58:22;101094.28;;;11.31;100.00
41250;BME280;26984;59.928;30.306;2023-06-04T08:00:49;101087.28;;;11.03;100.00
41250;BME280;26984;59.928;30.306;2023-06-04T08:03:17;101086.25;;;10.78;100.00
41250;BME280;26984;59.928;30.306;2023-06-04T08:05:46;101103.66;;;10.75;100.00
41250;BME280;26984;59.928;30.306;2023-06-04T08:08:14;101097.03;;;10.71;100.00
41250;BME280;26984;59.928;30.306;2023-06-04T08:10:41;101102.81;;;10.75;100.00
41250;BME280;26984;59.928;30.306;2023-06-04T08:13:10;101109.03;;;10.75;100.00
41250;BME280;26984;59.928;30.306;2023-06-04T08:15:37;101099.31;;;10.74;100.00
41250;BME280;26984;59.928;30.306;2023-06-04T08:18:25;101097.03;;;10.71;100.00
41250;BME280;26984;59.928;30.306;2023-06-04T08:21:08;101100.13;;;10.82;100.00
41250;BME280;26984;59.928;30.306;2023-06-04T08:23:56;101110.06;;;10.88;100.00
41250;BME280;26984;59.928;30.306;2023-06-04T08:26:44;101104.50;;;10.83;100.00
41250;BME280;26984;59.928;30.306;2023-06-04T08:29:24;101115.06;;;10.71;100.00
41250;BME280;26984;59.928;30.306;2023-06-04T08:31:55;101121.81;;;10.40;100.00
41250;BME280;26984;59.928;30.306;2023-06-04T08:34:26;101119.53;;;10.37;100.00
41250;BME280;26984;59.928;30.306;2023-06-04T08:36:54;101107.28;;;10.35;100.00
41250;BME280;26984;59.928;30.306;2023-06-04T08:39:22;101114.16;;;10.44;100.00
41250;BME280;26984;59.928;30.306;2023-06-04T08:41:51;101115.22;;;10.56;100.00
41250;BME280;26984;59.928;30.306;2023-06-04T08:44:19;101116.28;;;10.68;100.00
41250;BME280;26984;59.928;30.306;2023-06-04T08:46:50;101120.88;;;10.74;100.00
41250;BME280;26984;59.928;30.306;2023-06-04T08:49:18;101115.88;;;10.85;100.00
41250;BME280;26984;59.928;30.306;2023-06-04T08:51:46;101117.75;;;10.91;100.00
41250;BME280;26984;59.928;30.306;2023-06-04T08:54:14;101117.75;;;11.11;100.00
41250;BME280;26984;59.928;30.306;2023-06-04T08:56:43;101110.28;;;11.19;100.00
41250;BME280;26984;59.928;30.306;2023-06-04T08:59:12;101119.59;;;11.30;100.00
41250;BME280;26984;59.928;30.306;2023-06-04T09:01:39;101111.25;;;11.65;100.00
41250;BME280;26984;59.928;30.306;2023-06-04T09:04:12;101103.72;;;11.93;100.00
41250;BME280;26984;59.928;30.306;2023-06-04T09:06:40;101096.25;;;11.82;100.00
41250;BME280;26984;59.928;30.306;2023-06-04T09:09:09;101113.91;;;11.78;100.00
41250;BME280;26984;59.928;30.306;2023-06-04T09:11:40;101111.78;;;12.00;100.00
41250;BME280;26984;59.928;30.306;2023-06-04T09:14:09;101108.38;;;12.18;100.00
41250;BME280;26984;59.928;30.306;2023-06-04T09:16:43;101096.88;;;12.36;100.00
41250;BME280;26984;59.928;30.306;2023-06-04T09:19:12;101104.97;;;12.36;100.00
41250;BME280;26984;59.928;30.306;2023-06-04T09:21:46;101109.44;;;12.17;100.00
41250;BME280;26984;59.928;30.306;2023-06-04T09:24:14;101105.75;;;11.98;100.00
41250;BME280;26984;59.928;30.306;2023-06-04T09:26:41;101101.38;;;12.04;100.00
41250;BME280;26984;59.928;30.306;2023-06-04T09:29:09;101101.78;;;12.07;100.00
41250;BME280;26984;59.928;30.306;2023-06-04T09:31:36;101114.06;;;12.03;100.00
41250;BME280;26984;59.928;30.306;2023-06-04T09:34:05;101103.44;;;12.08;100.00
41250;BME280;26984;59.928;30.306;2023-06-04T09:36:35;101107.22;;;12.01;100.00
41250;BME280;26984;59.928;30.306;2023-06-04T09:39:03;101119.88;;;12.07;100.00
41250;BME280;26984;59.928;30.306;2023-06-04T09:41:31;101105.47;;;12.19;100.00
41250;BME280;26984;59.928;30.306;2023-06-04T09:44:01;101096.25;;;12.34;100.00
41250;BME280;26984;59.928;30.306;2023-06-04T09:46:30;101093.47;;;12.47;100.00
41250;BME280;26984;59.928;30.306;2023-06-04T09:49:01;101106.63;;;12.37;100.00
41250;BME280;26984;59.928;30.306;2023-06-04T09:51:29;101097.25;;;12.39;100.00
41250;BME280;26984;59.928;30.306;2023-06-04T09:53:58;101096.16;;;12.47;100.00
41250;BME280;26984;59.928;30.306;2023-06-04T09:56:26;101097.06;;;12.66;100.00
41250;BME280;26984;59.928;30.306;2023-06-04T09:58:56;101095.44;;;12.90;100.00
41250;BME280;26984;59.928;30.306;2023-06-04T10:01:26;101096.94;;;12.86;100.00
41250;BME280;26984;59.928;30.306;2023-06-04T10:03:54;101107.09;;;12.90;100.00
41250;BME280;26984;59.928;30.306;2023-06-04T10:06:22;101101.91;;;12.89;100.00
41250;BME280;26984;59.928;30.306;2023-06-04T10:08:51;101105.72;;;12.81;100.00
41250;BME280;26984;59.928;30.306;2023-06-04T10:11:25;101106.34;;;12.77;100.00
41250;BME280;26984;59.928;30.306;2023-06-04T10:13:56;101102.47;;;12.66;100.00
41250;BME280;26984;59.928;30.306;2023-06-04T10:16:26;101094.59;;;12.64;100.00
41250;BME280;26984;59.928;30.306;2023-06-04T10:18:54;101095.00;;;12.68;100.00
41250;BME280;26984;59.928;30.306;2023-06-04T10:21:22;101102.09;;;12.62;100.00
41250;BME280;26984;59.928;30.306;2023-06-04T10:23:50;101104.59;;;12.64;100.00
41250;BME280;26984;59.928;30.306;2023-06-04T10:26:18;101100.84;;;12.65;100.00
41250;BME280;26984;59.928;30.306;2023-06-04T10:28:47;101104.94;;;12.74;100.00
41250;BME280;26984;59.928;30.306;2023-06-04T10:31:15;101103.22;;;12.80;100.00
41250;BME280;26984;59.928;30.306;2023-06-04T10:33:42;101099.97;;;12.96;100.00
41250;BME280;26984;59.928;30.306;2023-06-04T10:36:18;101092.06;;;12.94;100.00
41250;BME280;26984;59.928;30.306;2023-06-04T10:38:46;101095.34;;;13.03;100.00
41250;BME280;26984;59.928;30.306;2023-06-04T10:41:13;101100.41;;;13.18;100.00
41250;BME280;26984;59.928;30.306;2023-06-04T10:43:42;101098.22;;;13.33;100.00
41250;BME280;26984;59.928;30.306;2023-06-04T10:46:15;101097.25;;;13.46;100.00
41250;BME280;26984;59.928;30.306;2023-06-04T10:48:46;101110.88;;;13.58;100.00
41250;BME280;26984;59.928;30.306;2023-06-04T10:51:14;101125.88;;;13.35;100.00
41250;BME280;26984;59.928;30.306;2023-06-04T10:53:42;101107.69;;;13.17;100.00
41250;BME280;26984;59.928;30.306;2023-06-04T10:56:09;101113.94;;;13.18;100.00
41250;BME280;26984;59.928;30.306;2023-06-04T10:58:37;101112.72;;;13.14;100.00
41250;BME280;26984;59.928;30.306;2023-06-04T11:01:04;101108.06;;;13.28;100.00
41250;BME280;26984;59.928;30.306;2023-06-04T11:03:36;101111.16;;;13.31;100.00
41250;BME280;26984;59.928;30.306;2023-06-04T11:06:14;101128.41;;;13.30;100.00
41250;BME280;26984;59.928;30.306;2023-06-04T11:08:42;101112.50;;;13.40;100.00
41250;BME280;26984;59.928;30.306;2023-06-04T11:11:13;101113.25;;;13.48;99.56
41250;BME280;26984;59.928;30.306;2023-06-04T11:13:41;101112.50;;;13.59;100.00
41250;BME280;26984;59.928;30.306;2023-06-04T11:16:15;101120.13;;;13.69;99.39
41250;BME280;26984;59.928;30.306;2023-06-04T11:18:49;101114.50;;;13.70;99.26
41250;BME280;26984;59.928;30.306;2023-06-04T11:21:20;101117.34;;;13.75;99.75
41250;BME280;26984;59.928;30.306;2023-06-04T11:23:48;101119.84;;;13.77;100.00
41250;BME280;26984;59.928;30.306;2023-06-04T11:26:16;101123.97;;;13.61;100.00
41250;BME280;26984;59.928;30.306;2023-06-04T11:28:43;101122.69;;;13.63;100.00
41250;BME280;26984;59.928;30.306;2023-06-04T11:31:15;101129.31;;;13.68;100.00
41250;BME280;26984;59.928;30.306;2023-06-04T11:33:43;101133.97;;;13.60;100.00
41250;BME280;26984;59.928;30.306;2023-06-04T11:36:21;101129.69;;;13.53;99.36
41250;BME280;26984;59.928;30.306;2023-06-04T11:38:53;101143.41;;;13.51;98.98
41250;BME280;26984;59.928;30.306;2023-06-04T11:41:21;101142.91;;;13.61;98.51
41250;BME280;26984;59.928;30.306;2023-06-04T11:43:48;101139.06;;;13.69;97.25
41250;BME280;26984;59.928;30.306;2023-06-04T11:46:16;101141.13;;;13.73;100.00
41250;BME280;26984;59.928;30.306;2023-06-04T11:48:43;101142.53;;;13.76;100.00
41250;BME280;26984;59.928;30.306;2023-06-04T11:51:12;101139.38;;;13.79;100.00
41250;BME280;26984;59.928;30.306;2023-06-04T11:53:41;101142.63;;;14.06;100.00
41250;BME280;26984;59.928;30.306;2023-06-04T11:56:08;101142.81;;;14.23;95.95
41250;BME280;26984;59.928;30.306;2023-06-04T11:58:37;101149.81;;;14.12;98.07
41250;BME280;26984;59.928;30.306;2023-06-04T12:01:06;101149.13;;;14.35;95.87
41250;BME280;26984;59.928;30.306;2023-06-04T12:03:35;101156.19;;;14.06;98.87
41250;BME280;26984;59.928;30.306;2023-06-04T12:06:11;101162.28;;;14.20;99.46
41250;BME280;26984;59.928;30.306;2023-06-04T12:08:46;101150.69;;;14.12;97.39
41250;BME280;26984;59.928;30.306;2023-06-04T12:11:24;101142.38;;;14.26;95.42
41250;BME280;26984;59.928;30.306;2023-06-04T12:13:52;101151.31;;;14.26;93.30
41250;BME280;26984;59.928;30.306;2023-06-04T12:16:20;101151.63;;;14.18;96.44
41250;BME280;26984;59.928;30.306;2023-06-04T12:18:47;101156.56;;;14.09;97.57
41250;BME280;26984;59.928;30.306;2023-06-04T12:21:18;101148.09;;;14.18;100.00
41250;BME280;26984;59.928;30.306;2023-06-04T12:23:49;101156.97;;;14.25;100.00
41250;BME280;26984;59.928;30.306;2023-06-04T12:26:20;101158.66;;;14.07;100.00
41250;BME280;26984;59.928;30.306;2023-06-04T12:28:58;101158.34;;;14.16;97.29
41250;BME280;26984;59.928;30.306;2023-06-04T12:31:25;101153.50;;;14.36;93.49
41250;BME280;26984;59.928;30.306;2023-06-04T12:34:00;101155.53;;;14.22;94.11
41250;BME280;26984;59.928;30.306;2023-06-04T12:36:28;101162.47;;;14.18;94.69
41250;BME280;26984;59.928;30.306;2023-06-04T12:38:57;101154.81;;;14.15;97.05
41250;BME280;26984;59.928;30.306;2023-06-04T12:41:25;101167.22;;;14.23;94.67
41250;BME280;26984;59.928;30.306;2023-06-04T12:43:54;101151.81;;;14.23;95.25
41250;BME280;26984;59.928;30.306;2023-06-04T12:46:21;101169.06;;;14.41;92.46
41250;BME280;26984;59.928;30.306;2023-06-04T12:48:49;101161.97;;;14.58;87.48